Metar Aviation Weather Data EGOS RAF Shawbury

21°C Temp
8°C Dewpoint
43% Humidity
Temperature
11 KM/H
7 MPH
6 KTS
180°
Due South

Wind Speed
Clear
Conditions
Pressure 1018 (hPa) - 30.06 (in)
Visibility 6.2 (mi) - 10.0 (km)

Current Conditions
EGOS
RAF Shawbury
Metar :EGOS 201750Z AUTO 18006KT 9999 NCD 21/08 Q1018
Sun 20th May 18:50 pm

RAF Shawbury
  Metar Aviation API Data Provided by https://www.checkwx.com/ PHP scripts by weather34.com ©2018